Lloyd, Florida
Current Conditions -  °F | °C
As of 6:53 PM on Wednesday 28 Jan 2015 (Local Time) from KTLH Reporting Station
Clear Clear  
Wind Chill: 49°   Ceiling: Unl
Heat Index: 49°   Visibility: 10mi
Dew Point: 34°   Wind: 3mph
Humidity: 56%   Direction: 80°E
Pressure: 30.25"   Gusts: NA
Location:  30.48°N, 84.02°W
Report Text: KTLH 282353Z 08003KT 10SM CLR 09/01 A3025 RMK AO2 SLP242 T00940011 10150 20089 50004 $
Loading
Personal Weather Stations






























Interactive Weather Map New forecast layout! Learn more

10-Day Weather Forecast

Advertisements
Track Severe Weather on mobile